Time;durP1;ratioP1;P1;durP2;ratioP2;P2;SDS_P1;SDS_P2;PMS_P1;PMS_P2;Temp;Humidity;BMP_temperature;BMP_pressure;BME280_temperature;BME280_humidity;BME280_pressure;Samples;Min_cycle;Max_cycle;Signal;HPM_P1;HPM_P2
2022/09/29 00:00:48;;;;;;;0.60;0.60;;;;;;;7.44;92.31;98108.22;4973080;28;20429;-88
2022/09/29 00:03:16;;;;;;;0.50;0.50;;;;;;;7.46;92.16;98113.34;4974464;28;20057;-87
2022/09/29 00:05:48;;;;;;;0.50;0.50;;;;;;;7.46;92.31;98105.28;4973698;28;20094;-87
2022/09/29 00:08:16;;;;;;;0.60;0.60;;;;;;;7.43;92.16;98103.09;4975880;28;20055;-86
2022/09/29 00:10:43;;;;;;;0.50;0.50;;;;;;;7.44;92.25;98110.88;4975197;28;20162;-88
2022/09/29 00:13:11;;;;;;;0.50;0.50;;;;;;;7.47;92.33;98117.63;4960472;28;20050;-87
2022/09/29 00:15:38;;;;;;;0.50;0.50;;;;;;;7.45;92.11;98119.78;4977737;28;20469;-87
2022/09/29 00:18:05;;;;;;;0.60;0.60;;;;;;;7.44;91.88;98121.63;4976615;28;20055;-88
2022/09/29 00:20:40;;;;;;;0.50;0.50;;;;;;;7.42;91.99;98117.56;4976940;28;20478;-88
2022/09/29 00:23:07;;;;;;;0.50;0.50;;;;;;;7.43;92.07;98125.38;4974282;28;20500;-87
2022/09/29 00:25:34;;;;;;;0.50;0.50;;;;;;;7.43;91.99;98114.66;4973972;28;20533;-88
2022/09/29 00:28:01;;;;;;;0.50;0.50;;;;;;;7.43;92.21;98119.22;4973649;28;20054;-87
2022/09/29 00:30:28;;;;;;;0.50;0.50;;;;;;;7.42;92.42;98122.94;4974635;28;20167;-88
2022/09/29 00:32:55;;;;;;;0.60;0.60;;;;;;;7.43;92.51;98127.25;4975782;28;20059;-87
2022/09/29 00:35:22;;;;;;;0.55;0.55;;;;;;;7.45;92.84;98130.53;4961684;28;20043;-89
2022/09/29 00:37:49;;;;;;;0.52;0.52;;;;;;;7.44;92.71;98134.25;4970877;28;20470;-86
2022/09/29 00:40:16;;;;;;;0.50;0.50;;;;;;;7.42;92.98;98133.66;4974665;28;20055;-87
2022/09/29 00:42:44;;;;;;;0.60;0.60;;;;;;;7.43;93.01;98143.38;4988055;28;20101;-86
2022/09/29 00:45:22;;;;;;;0.60;0.60;;;;;;;7.45;93.21;98138.56;4973884;28;20085;-87
2022/09/29 00:47:53;;;;;;;0.60;0.60;;;;;;;7.42;93.05;98141.72;4972790;28;20051;-88
2022/09/29 00:50:50;;;;;;;0.50;0.50;;;;;;;7.44;93.22;98142.28;4956674;28;20081;-84
2022/09/29 00:53:19;;;;;;;0.55;0.55;;;;;;;7.39;92.96;98153.75;4958279;28;20078;-86
2022/09/29 00:56:01;;;;;;;0.50;0.50;;;;;;;7.35;93.10;98148.09;4956497;28;20054;-85
2022/09/29 00:58:43;;;;;;;0.60;0.60;;;;;;;7.33;93.39;98152.06;4940608;28;20065;-85
2022/09/29 01:01:12;;;;;;;0.60;0.60;;;;;;;7.31;93.11;98154.97;4974591;28;20051;-85
2022/09/29 01:03:41;;;;;;;0.60;0.60;;;;;;;7.27;93.17;98156.56;4958788;28;20066;-86
2022/09/29 01:06:13;;;;;;;0.60;0.60;;;;;;;7.24;93.24;98157.03;4973999;28;20510;-85
2022/09/29 01:08:41;;;;;;;0.60;0.60;;;;;;;7.20;93.26;98153.22;4975607;28;20050;-86
2022/09/29 01:11:10;;;;;;;0.60;0.60;;;;;;;7.23;93.75;98155.41;4975649;28;20051;-84
2022/09/29 01:13:38;;;;;;;0.60;0.60;;;;;;;7.20;93.50;98155.88;4975911;28;20074;-87
2022/09/29 01:16:05;;;;;;;0.60;0.60;;;;;;;7.18;93.44;98154.50;4943640;28;20054;-86
2022/09/29 01:18:33;;;;;;;0.60;0.60;;;;;;;7.21;93.60;98154.81;4976503;28;20046;-86
2022/09/29 01:20:59;;;;;;;0.60;0.60;;;;;;;7.23;93.44;98160.75;4958208;28;20053;-85
2022/09/29 01:23:40;;;;;;;0.60;0.60;;;;;;;7.26;93.07;98157.59;4974197;28;20051;-86
2022/09/29 01:26:43;;;;;;;0.60;0.60;;;;;;;7.20;92.91;98158.56;4973149;28;20057;-85
2022/09/29 01:29:26;;;;;;;0.60;0.60;;;;;;;7.14;93.21;98162.22;4971506;28;20600;-85
2022/09/29 01:31:53;;;;;;;0.60;0.60;;;;;;;7.15;93.33;98163.84;4955788;28;20046;-87
2022/09/29 01:34:28;;;;;;;0.60;0.60;;;;;;;7.21;93.30;98165.56;4971660;28;20054;-85
2022/09/29 01:37:50;;;;;;;0.60;0.60;;;;;;;7.22;93.32;98169.88;4971088;28;20062;-87
2022/09/29 01:40:44;;;;;;;0.60;0.60;;;;;;;7.20;93.30;98179.22;4931630;29;20075;-87
2022/09/29 01:43:17;;;;;;;0.60;0.60;;;;;;;7.17;92.99;98169.81;4931495;29;20059;-87
2022/09/29 01:45:52;;;;;;;0.60;0.60;;;;;;;7.14;93.17;98156.84;4915976;29;20056;-86
2022/09/29 01:48:29;;;;;;;0.50;0.50;;;;;;;7.14;93.30;98165.72;4931713;29;20060;-86
2022/09/29 01:51:00;;;;;;;0.60;0.60;;;;;;;7.11;93.48;98163.50;4916285;29;20111;-86
2022/09/29 01:53:49;;;;;;;0.60;0.60;;;;;;;7.11;93.78;98170.75;4931647;29;20146;-84
2022/09/29 01:56:22;;;;;;;0.60;0.60;;;;;;;7.10;93.83;98169.13;4916138;29;20062;-86
2022/09/29 01:58:55;;;;;;;0.50;0.50;;;;;;;7.09;94.21;98176.38;4916284;29;20055;-85
2022/09/29 02:01:26;;;;;;;0.60;0.60;;;;;;;7.09;94.23;98178.22;4931222;29;20051;-86
2022/09/29 02:04:01;;;;;;;0.60;0.60;;;;;;;7.06;94.11;98173.34;4931283;29;20106;-86
2022/09/29 02:06:37;;;;;;;0.60;0.60;;;;;;;7.04;94.28;98180.81;4931729;29;20094;-87
2022/09/29 02:09:08;;;;;;;0.60;0.60;;;;;;;7.05;94.71;98185.97;4934321;29;20577;-86
2022/09/29 02:11:38;;;;;;;0.60;0.60;;;;;;;7.07;94.78;98183.03;4935422;29;20503;-86
2022/09/29 02:14:16;;;;;;;0.60;0.60;;;;;;;7.07;95.08;98170.44;4934857;29;20043;-88
2022/09/29 02:16:47;;;;;;;0.50;0.50;;;;;;;7.09;94.89;98181.75;4936333;29;20070;-86
2022/09/29 02:19:19;;;;;;;0.60;0.60;;;;;;;7.11;94.92;98181.47;4937395;29;20063;-87
2022/09/29 02:21:46;;;;;;;0.50;0.50;;;;;;;7.13;94.77;98185.56;4952090;29;20048;-86
2022/09/29 02:24:13;;;;;;;0.50;0.50;;;;;;;7.14;94.64;98178.31;4952177;29;20052;-84
2022/09/29 02:26:41;;;;;;;0.60;0.60;;;;;;;7.13;94.45;98174.00;4920174;29;20442;-87
2022/09/29 02:29:08;;;;;;;0.60;0.60;;;;;;;7.11;94.53;98170.75;4951716;29;20052;-87
2022/09/29 02:31:36;;;;;;;0.50;0.50;;;;;;;7.11;94.61;98166.19;4951731;29;20549;-87
2022/09/29 02:34:04;;;;;;;0.60;0.60;;;;;;;7.13;94.70;98171.34;4936277;29;20500;-87
2022/09/29 02:37:11;;;;;;;0.50;0.50;;;;;;;7.13;94.89;98179.38;4952538;28;20307;-86
2022/09/29 02:39:50;;;;;;;0.52;0.52;;;;;;;7.10;94.69;98180.69;4946350;28;20501;-88
2022/09/29 02:42:56;;;;;;;0.50;0.50;;;;;;;7.10;94.56;98180.69;4975308;28;20051;-88
2022/09/29 02:45:57;;;;;;;0.60;0.60;;;;;;;7.12;94.45;98180.44;4974744;28;20042;-86
2022/09/29 02:48:55;;;;;;;0.55;0.55;;;;;;;7.12;94.49;98183.94;4975671;28;20141;-86
2022/09/29 02:51:47;;;;;;;0.60;0.60;;;;;;;7.10;94.42;98185.22;4962145;28;20046;-87
2022/09/29 02:54:36;;;;;;;0.60;0.60;;;;;;;7.08;94.54;98185.47;4958755;28;20043;-87
2022/09/29 02:57:12;;;;;;;0.60;0.60;;;;;;;7.09;94.47;98194.31;4959046;28;20047;-88
2022/09/29 02:59:52;;;;;;;0.60;0.60;;;;;;;7.10;94.56;98195.97;4975419;28;20581;-87
2022/09/29 03:02:23;;;;;;;0.60;0.60;;;;;;;7.09;94.72;98191.63;4941848;28;20057;-87
2022/09/29 03:04:52;;;;;;;0.60;0.60;;;;;;;7.06;94.43;98189.44;4975215;28;20050;-87
2022/09/29 03:07:20;;;;;;;0.60;0.60;;;;;;;7.04;94.54;98192.38;4973841;28;20054;-87
2022/09/29 03:09:47;;;;;;;0.60;0.60;;;;;;;7.07;94.99;98193.78;4958168;28;20050;-88
2022/09/29 03:12:14;;;;;;;0.50;0.50;;;;;;;7.10;94.84;98198.66;4974865;28;20493;-86
2022/09/29 03:14:41;;;;;;;0.50;0.50;;;;;;;7.10;94.93;98182.56;4974609;28;20106;-86
2022/09/29 03:17:08;;;;;;;0.60;0.60;;;;;;;7.10;94.63;98193.28;4958111;28;20081;-85
2022/09/29 03:19:35;;;;;;;0.60;0.60;;;;;;;7.09;94.71;98195.16;4973600;28;20046;-90
2022/09/29 03:22:03;;;;;;;0.50;0.50;;;;;;;7.09;94.42;98197.84;4974889;28;20058;-87
2022/09/29 03:24:30;;;;;;;0.50;0.50;;;;;;;7.11;94.50;98198.38;4975877;28;20059;-88
2022/09/29 03:27:00;;;;;;;0.50;0.50;;;;;;;7.14;94.28;98207.81;4975881;28;20102;-87
2022/09/29 03:29:28;;;;;;;0.60;0.60;;;;;;;7.19;94.22;98205.25;4975809;28;20055;-85
2022/09/29 03:31:55;;;;;;;0.60;0.60;;;;;;;7.24;93.87;98209.88;4974553;28;20043;-87
2022/09/29 03:34:22;;;;;;;0.60;0.60;;;;;;;7.28;93.58;98208.34;4941419;28;20055;-87
2022/09/29 03:36:49;;;;;;;0.55;0.55;;;;;;;7.26;93.11;98213.13;4974879;28;20457;-86
2022/09/29 03:39:17;;;;;;;0.50;0.50;;;;;;;7.32;92.48;98215.69;4972652;28;20054;-84
2022/09/29 03:41:44;;;;;;;0.60;0.60;;;;;;;7.34;92.36;98213.56;4979437;28;20049;-83
2022/09/29 03:44:11;;;;;;;0.50;0.50;;;;;;;7.35;92.00;98214.38;4975932;28;20092;-84
2022/09/29 03:46:39;;;;;;;0.60;0.60;;;;;;;7.38;91.69;98216.56;4992167;28;20152;-82
2022/09/29 03:49:09;;;;;;;0.60;0.60;;;;;;;7.34;91.81;98226.16;4975859;28;20050;-86
2022/09/29 03:51:37;;;;;;;0.60;0.60;;;;;;;7.35;92.07;98214.38;4992337;28;20101;-85
2022/09/29 03:54:04;;;;;;;0.50;0.50;;;;;;;7.35;91.70;98223.25;4991795;28;20050;-85
2022/09/29 03:56:32;;;;;;;0.50;0.50;;;;;;;7.37;91.57;98218.44;4975061;28;20047;-85
2022/09/29 03:58:59;;;;;;;0.60;0.60;;;;;;;7.35;91.66;98217.88;4963137;28;20533;-83
2022/09/29 04:01:27;;;;;;;0.50;0.50;;;;;;;7.37;91.54;98218.44;4961688;28;20496;-84
2022/09/29 04:03:54;;;;;;;0.52;0.52;;;;;;;7.41;91.67;98228.69;4954608;29;20047;-83
2022/09/29 04:06:21;;;;;;;0.50;0.50;;;;;;;7.45;91.17;98227.16;4954278;28;20043;-86
2022/09/29 04:08:49;;;;;;;0.50;0.50;;;;;;;7.47;90.47;98230.41;4970117;28;20050;-86
2022/09/29 04:11:16;;;;;;;0.60;0.60;;;;;;;7.49;89.81;98233.66;4937799;29;20047;-86
2022/09/29 04:13:43;;;;;;;0.55;0.55;;;;;;;7.53;89.52;98234.81;4969500;28;20601;-83
2022/09/29 04:16:10;;;;;;;0.50;0.50;;;;;;;7.58;89.27;98234.91;4937397;29;20043;-84
2022/09/29 04:18:37;;;;;;;0.50;0.50;;;;;;;7.63;88.87;98236.84;4953174;29;20051;-85
2022/09/29 04:21:06;;;;;;;0.50;0.50;;;;;;;7.63;88.73;98237.66;4953482;29;20071;-88
2022/09/29 04:23:34;;;;;;;0.50;0.50;;;;;;;7.65;88.76;98234.75;4969568;28;20051;-86
2022/09/29 04:26:01;;;;;;;0.50;0.50;;;;;;;7.68;88.51;98234.25;4952932;29;20457;-86
2022/09/29 04:28:33;;;;;;;0.50;0.50;;;;;;;7.70;88.53;98235.63;4968966;28;20055;-87
2022/09/29 04:31:01;;;;;;;0.50;0.50;;;;;;;7.73;87.97;98237.00;4968750;28;20058;-85
2022/09/29 04:33:28;;;;;;;0.60;0.60;;;;;;;7.74;87.81;98233.25;4970250;28;20106;-86
2022/09/29 04:35:57;;;;;;;0.52;0.52;;;;;;;7.78;87.44;98235.22;4953611;29;20102;-87
2022/09/29 04:38:25;;;;;;;0.60;0.60;;;;;;;7.81;87.36;98242.78;4937192;29;20130;-87
2022/09/29 04:40:52;;;;;;;0.55;0.55;;;;;;;7.81;87.28;98245.47;4949901;28;20123;-85
2022/09/29 04:43:19;;;;;;;0.55;0.55;;;;;;;7.78;86.86;98237.09;4949451;29;20503;-86
2022/09/29 04:45:46;;;;;;;0.60;0.60;;;;;;;7.79;86.78;98246.78;4950398;29;20048;-85
2022/09/29 04:48:14;;;;;;;0.60;0.60;;;;;;;7.79;87.27;98244.88;4950970;29;20098;-86
2022/09/29 04:50:41;;;;;;;0.50;0.50;;;;;;;7.80;87.30;98249.22;4950214;29;20076;-85
2022/09/29 04:53:10;;;;;;;0.60;0.60;;;;;;;7.81;86.94;98250.84;4933873;29;20087;-87
2022/09/29 04:55:38;;;;;;;0.50;0.50;;;;;;;7.81;87.07;98239.28;4965634;28;20099;-86
2022/09/29 04:58:05;;;;;;;0.60;0.60;;;;;;;7.78;87.21;98242.47;4965492;28;20527;-86
2022/09/29 05:00:34;;;;;;;0.60;0.60;;;;;;;7.78;87.91;98245.97;4950072;28;20060;-86
2022/09/29 05:03:02;;;;;;;0.60;0.60;;;;;;;7.80;87.95;98249.22;4964870;28;20050;-86
2022/09/29 05:05:29;;;;;;;0.60;0.60;;;;;;;7.84;87.90;98243.34;4949466;28;20055;-86
2022/09/29 05:07:58;;;;;;;0.60;0.60;;;;;;;7.90;87.86;98242.34;4949588;29;20138;-86
2022/09/29 05:10:25;;;;;;;0.60;0.60;;;;;;;8.00;87.58;98229.91;4949350;29;20047;-86
2022/09/29 05:12:53;;;;;;;0.60;0.60;;;;;;;8.11;87.47;98227.38;4917771;29;20055;-85
2022/09/29 05:15:20;;;;;;;0.60;0.60;;;;;;;8.09;87.13;98237.56;4971648;28;20086;-88
2022/09/29 05:17:51;;;;;;;0.60;0.60;;;;;;;8.05;87.54;98245.28;4972913;28;20477;-87
2022/09/29 05:20:19;;;;;;;0.60;0.60;;;;;;;8.04;87.56;98244.47;4987467;28;20145;-86
2022/09/29 05:22:45;;;;;;;0.60;0.60;;;;;;;8.03;87.88;98256.28;4969946;28;20054;-86
2022/09/29 05:25:12;;;;;;;0.60;0.60;;;;;;;8.03;88.22;98264.34;4954039;28;20047;-87
2022/09/29 05:27:40;;;;;;;0.60;0.60;;;;;;;8.04;88.58;98259.78;4970520;28;20062;-87
2022/09/29 05:30:07;;;;;;;0.52;0.52;;;;;;;8.02;88.55;98261.91;4970588;28;20051;-86
2022/09/29 05:32:34;;;;;;;0.60;0.60;;;;;;;7.98;88.77;98255.41;4970196;28;20053;-87
2022/09/29 05:35:02;;;;;;;0.60;0.60;;;;;;;7.96;88.80;98262.88;4969665;28;20102;-85
2022/09/29 05:37:29;;;;;;;0.60;0.60;;;;;;;7.96;89.20;98262.88;4970520;28;20086;-87
2022/09/29 05:39:56;;;;;;;0.60;0.60;;;;;;;7.95;89.38;98270.16;4970590;28;20102;-87
2022/09/29 05:42:24;;;;;;;0.60;0.60;;;;;;;7.92;89.61;98275.97;4969761;28;20051;-86
2022/09/29 05:44:51;;;;;;;0.60;0.60;;;;;;;7.88;90.36;98274.88;4969883;28;20050;-86
2022/09/29 05:47:19;;;;;;;0.60;0.60;;;;;;;7.88;90.70;98282.91;4938227;28;20059;-86
2022/09/29 05:49:46;;;;;;;0.70;0.70;;;;;;;7.89;91.02;98281.84;4934184;29;20054;-86
2022/09/29 05:52:13;;;;;;;0.60;0.60;;;;;;;7.90;91.54;98280.81;4967862;28;20495;-86
2022/09/29 05:54:40;;;;;;;0.60;0.60;;;;;;;7.90;91.94;98278.13;4935453;29;20043;-87
2022/09/29 05:57:07;;;;;;;0.60;0.60;;;;;;;7.94;92.44;98286.50;4933963;29;20051;-85
2022/09/29 05:59:34;;;;;;;0.60;0.60;;;;;;;7.92;92.65;98283.22;4933645;29;20142;-87
2022/09/29 06:02:01;;;;;;;0.60;0.60;;;;;;;7.98;92.82;98298.41;4934094;29;20056;-87
2022/09/29 06:04:28;;;;;;;0.60;0.60;;;;;;;7.96;93.01;98292.44;4934588;29;20074;-86
2022/09/29 06:06:56;;;;;;;0.60;0.60;;;;;;;7.90;93.24;98291.56;4965097;28;20051;-87
2022/09/29 06:09:23;;;;;;;0.60;0.60;;;;;;;7.97;93.29;98289.50;4602179;28;10000536;-86
2022/09/29 06:11:50;;;;;;;0.63;0.63;;;;;;;8.10;93.22;98285.69;4995442;28;20055;-87
2022/09/29 06:14:17;;;;;;;0.60;0.60;;;;;;;8.28;93.07;98294.53;4968473;28;20055;-87
2022/09/29 06:16:44;;;;;;;0.60;0.60;;;;;;;8.37;92.76;98284.97;4983170;28;20465;-88
2022/09/29 06:19:12;;;;;;;0.60;0.60;;;;;;;8.41;92.25;98281.59;4964372;28;20050;-86
2022/09/29 06:21:39;;;;;;;0.50;0.50;;;;;;;8.49;92.02;98292.97;4957979;28;20118;-90
2022/09/29 06:24:06;;;;;;;0.50;0.50;;;;;;;8.51;91.85;98296.22;4949582;28;20051;-86
2022/09/29 06:26:34;;;;;;;0.60;0.60;;;;;;;8.48;91.79;98294.84;4958213;28;20058;-85
2022/09/29 06:29:01;;;;;;;0.60;0.60;;;;;;;8.51;91.89;98294.38;4951555;28;20058;-84
2022/09/29 06:31:30;;;;;;;0.60;0.60;;;;;;;8.60;91.47;98294.72;4963665;28;20149;-86
2022/09/29 06:34:02;;;;;;;0.60;0.60;;;;;;;8.79;90.83;98298.75;4955100;28;20051;-88
2022/09/29 06:39:18;;;;;;;0.60;0.60;;;;;;;9.09;89.05;98294.81;4969945;28;20055;-86
2022/09/29 06:41:55;;;;;;;0.60;0.60;;;;;;;9.18;88.10;98303.25;4986786;28;20046;-84
2022/09/29 06:44:24;;;;;;;0.70;0.70;;;;;;;9.41;87.43;98299.44;4985858;28;20444;-83
2022/09/29 06:46:53;;;;;;;0.57;0.57;;;;;;;9.59;86.70;98306.34;4981204;28;20069;-85
2022/09/29 06:49:20;;;;;;;0.60;0.60;;;;;;;9.64;86.19;98315.28;4978408;28;20054;-86
2022/09/29 06:51:48;;;;;;;0.50;0.50;;;;;;;9.49;85.59;98315.13;4974941;28;20402;-85
2022/09/29 06:54:20;;;;;;;0.57;0.57;;;;;;;9.18;85.77;98317.50;4977819;28;20058;-85
2022/09/29 06:56:50;;;;;;;0.60;0.60;;;;;;;8.96;86.33;98320.22;4976510;28;20434;-90
2022/09/29 06:59:17;;;;;;;0.60;0.60;;;;;;;8.85;86.86;98321.16;4982387;28;20422;-88
2022/09/29 07:01:48;;;;;;;0.60;0.60;;;;;;;8.87;87.27;98324.41;4962009;28;20058;-88
2022/09/29 07:04:15;;;;;;;0.60;0.60;;;;;;;8.90;87.38;98326.59;4978776;28;20051;-89
2022/09/29 07:06:43;;;;;;;0.60;0.60;;;;;;;8.93;87.50;98330.66;4983164;28;20054;-88
2022/09/29 07:09:15;;;;;;;0.52;0.52;;;;;;;8.94;87.44;98335.81;4978144;28;20116;-88
2022/09/29 07:11:46;;;;;;;0.60;0.60;;;;;;;9.00;87.59;98336.69;4993354;28;20109;-87
2022/09/29 07:14:18;;;;;;;0.60;0.60;;;;;;;9.04;87.26;98327.03;4960518;28;20054;-86
2022/09/29 07:16:48;;;;;;;0.60;0.60;;;;;;;9.13;87.17;98338.19;4979650;28;20055;-84
2022/09/29 07:19:17;;;;;;;0.60;0.60;;;;;;;9.22;87.09;98342.88;4972927;28;20042;-86
2022/09/29 07:21:48;;;;;;;0.60;0.60;;;;;;;9.22;86.83;98340.19;4983814;28;20101;-86
2022/09/29 07:24:15;;;;;;;0.60;0.60;;;;;;;9.24;86.98;98339.91;4977749;28;20447;-86
2022/09/29 07:26:42;;;;;;;0.60;0.60;;;;;;;9.37;86.86;98338.72;4976709;28;20071;-85
2022/09/29 07:29:10;;;;;;;0.60;0.60;;;;;;;9.51;86.47;98350.72;4985206;28;20054;-83
2022/09/29 07:31:44;;;;;;;0.60;0.60;;;;;;;9.54;85.66;98342.97;4976731;28;20055;-84
2022/09/29 07:34:20;;;;;;;0.60;0.60;;;;;;;9.70;85.90;98333.16;4988527;28;20061;-84
2022/09/29 07:36:47;;;;;;;0.50;0.50;;;;;;;9.92;84.82;98338.44;4990225;28;20157;-85
2022/09/29 07:39:14;;;;;;;0.60;0.60;;;;;;;10.05;84.56;98339.94;4982856;28;20046;-82
2022/09/29 07:41:41;;;;;;;0.60;0.60;;;;;;;9.98;84.15;98352.81;4978257;28;20177;-86
2022/09/29 07:44:08;;;;;;;0.60;0.60;;;;;;;9.89;84.36;98355.13;4973690;28;20043;-89
2022/09/29 07:46:35;;;;;;;0.60;0.60;;;;;;;9.83;84.77;98368.84;4974970;28;20043;-87
2022/09/29 07:49:03;;;;;;;0.60;0.60;;;;;;;9.82;85.02;98359.09;4974555;28;20055;-87
2022/09/29 07:51:30;;;;;;;0.70;0.70;;;;;;;9.99;85.24;98365.19;4976889;28;20058;-86
2022/09/29 07:54:02;;;;;;;0.60;0.60;;;;;;;10.03;84.33;98366.31;4974606;28;20047;-85
2022/09/29 07:56:29;;;;;;;0.60;0.60;;;;;;;9.96;84.37;98363.03;4973727;28;20061;-85
2022/09/29 07:58:56;;;;;;;0.60;0.60;;;;;;;9.88;84.95;98385.06;4973819;28;20055;-84
2022/09/29 08:01:24;;;;;;;0.60;0.60;;;;;;;9.80;85.51;98382.78;4973989;28;20510;-84
2022/09/29 08:03:53;;;;;;;0.60;0.60;;;;;;;9.86;85.82;98371.81;4973818;28;20066;-85
2022/09/29 08:06:21;;;;;;;0.60;0.60;;;;;;;9.83;85.61;98383.13;4975200;28;20057;-84
2022/09/29 08:08:48;;;;;;;0.60;0.60;;;;;;;9.71;86.18;98393.22;4974780;28;20594;-85
2022/09/29 08:11:28;;;;;;;0.60;0.60;;;;;;;9.76;86.61;98393.28;4960666;28;20306;-85
2022/09/29 08:13:59;;;;;;;0.55;0.55;;;;;;;9.83;86.69;98399.28;4974304;28;20047;-83
2022/09/29 08:16:26;;;;;;;0.60;0.60;;;;;;;9.91;86.77;98400.72;4972098;28;20049;-85
2022/09/29 08:18:53;;;;;;;0.60;0.60;;;;;;;10.11;86.57;98405.47;4973615;28;20126;-84
2022/09/29 08:21:20;;;;;;;0.70;0.70;;;;;;;10.56;85.22;98390.78;4955921;28;20589;-85
2022/09/29 08:23:47;;;;;;;0.80;0.80;;;;;;;11.57;82.56;98378.00;4974349;28;20051;-85
2022/09/29 08:26:16;;;;;;;0.60;0.60;;;;;;;12.06;79.14;98374.91;4973729;28;20050;-86
2022/09/29 08:28:44;;;;;;;0.50;0.50;;;;;;;11.79;78.86;98396.72;4973421;28;20051;-85
2022/09/29 08:31:15;;;;;;;0.50;0.50;;;;;;;11.33;80.37;98404.69;4973048;28;20055;-86
2022/09/29 08:33:43;;;;;;;0.50;0.50;;;;;;;10.78;81.00;98420.31;4975201;28;20050;-85
2022/09/29 08:36:15;;;;;;;0.50;0.50;;;;;;;10.42;83.00;98420.06;4975398;28;20082;-86
2022/09/29 08:38:47;;;;;;;0.50;0.50;;;;;;;10.17;84.45;98424.13;4973311;28;20054;-84
2022/09/29 08:41:26;;;;;;;0.50;0.50;;;;;;;10.12;85.31;98434.88;4972447;28;20145;-84
2022/09/29 08:44:16;;;;;;;0.55;0.55;;;;;;;10.08;86.09;98439.16;4972115;28;20061;-85
2022/09/29 08:47:14;;;;;;;0.50;0.50;;;;;;;10.10;86.29;98439.72;4973190;28;20525;-86
2022/09/29 08:49:46;;;;;;;0.55;0.55;;;;;;;9.99;86.75;98451.47;4988054;28;20081;-85
2022/09/29 08:52:34;;;;;;;0.60;0.60;;;;;;;10.00;87.16;98453.06;4971732;28;20054;-86
2022/09/29 08:55:17;;;;;;;0.60;0.60;;;;;;;9.99;87.55;98449.56;4973189;28;20490;-83
2022/09/29 08:57:57;;;;;;;0.60;0.60;;;;;;;9.97;87.72;98469.75;4973149;28;20058;-85
2022/09/29 09:00:37;;;;;;;0.50;0.50;;;;;;;9.83;88.32;98450.50;4991971;28;20054;-84
2022/09/29 09:03:17;;;;;;;0.50;0.50;;;;;;;9.85;88.99;98452.91;4975195;28;20397;-84
2022/09/29 09:05:54;;;;;;;0.50;0.50;;;;;;;9.85;89.10;98455.59;4992733;28;20109;-83
2022/09/29 09:08:24;;;;;;;0.60;0.60;;;;;;;9.94;89.49;98457.59;4991000;28;20054;-85
2022/09/29 09:11:27;;;;;;;0.50;0.50;;;;;;;9.98;89.27;98452.53;4992526;28;20049;-85
2022/09/29 09:14:22;;;;;;;0.60;0.60;;;;;;;10.03;89.19;98454.47;4951440;29;20058;-85
2022/09/29 09:16:59;;;;;;;0.60;0.60;;;;;;;10.21;89.04;98456.81;4951181;28;20055;-85
2022/09/29 09:19:32;;;;;;;0.60;0.60;;;;;;;10.45;88.19;98448.41;4950873;29;20126;-84
2022/09/29 09:22:24;;;;;;;0.60;0.60;;;;;;;10.72;87.31;98451.88;4950987;29;20051;-85
2022/09/29 09:24:55;;;;;;;0.60;0.60;;;;;;;10.80;86.18;98455.97;4950930;29;20078;-85
2022/09/29 09:27:30;;;;;;;0.50;0.50;;;;;;;10.83;85.90;98452.75;4950358;28;20442;-85
2022/09/29 09:30:05;;;;;;;0.60;0.60;;;;;;;10.71;86.45;98468.31;4935134;29;20050;-85
2022/09/29 09:32:36;;;;;;;0.60;0.60;;;;;;;10.75;86.51;98472.13;4966901;28;20051;-84
2022/09/29 09:35:46;;;;;;;0.50;0.50;;;;;;;10.60;86.59;98467.41;4950789;29;20549;-84
2022/09/29 09:38:27;;;;;;;0.52;0.52;;;;;;;10.60;86.68;98470.13;4932118;29;20507;-85
2022/09/29 09:40:56;;;;;;;0.50;0.50;;;;;;;10.61;86.57;98471.75;4915965;29;20048;-85
2022/09/29 09:43:48;;;;;;;0.55;0.55;;;;;;;10.59;86.99;98472.00;4931710;29;20475;-85
2022/09/29 09:46:43;;;;;;;0.50;0.50;;;;;;;10.61;86.91;98469.06;4900187;29;20517;-85
2022/09/29 09:49:18;;;;;;;0.60;0.60;;;;;;;10.71;87.08;98473.69;4929786;29;20071;-85
2022/09/29 09:52:03;;;;;;;0.50;0.50;;;;;;;10.89;86.82;98458.97;4953464;29;20059;-85
2022/09/29 09:54:36;;;;;;;0.52;0.52;;;;;;;10.90;85.98;98464.13;4935004;29;20055;-85
2022/09/29 09:57:29;;;;;;;0.55;0.55;;;;;;;10.93;85.91;98465.50;4934672;29;20051;-85
2022/09/29 09:59:59;;;;;;;0.50;0.50;;;;;;;10.92;85.53;98463.88;4924415;29;20056;-84
2022/09/29 10:02:28;;;;;;;0.50;0.50;;;;;;;10.91;85.25;98467.63;4935368;29;20127;-84
2022/09/29 10:04:55;;;;;;;0.50;0.50;;;;;;;10.92;85.32;98464.69;4931332;29;20051;-84
2022/09/29 10:07:25;;;;;;;0.50;0.50;;;;;;;10.89;84.80;98467.91;4934786;29;20122;-83
2022/09/29 10:09:52;;;;;;;0.60;0.60;;;;;;;10.80;84.80;98489.16;4937650;29;20054;-83
2022/09/29 10:12:21;;;;;;;0.52;0.52;;;;;;;10.76;85.45;98482.69;4935222;29;20086;-84
2022/09/29 10:14:52;;;;;;;0.50;0.50;;;;;;;10.73;85.58;98485.88;4963823;28;20066;-84
2022/09/29 10:17:22;;;;;;;0.50;0.50;;;;;;;10.66;86.16;98495.25;4956460;28;20042;-83
2022/09/29 10:20:02;;;;;;;0.50;0.50;;;;;;;10.64;86.46;98495.53;4973026;28;20051;-86
2022/09/29 10:22:31;;;;;;;0.50;0.50;;;;;;;10.66;86.79;98501.50;4631744;28;10000716;-84
2022/09/29 10:25:21;;;;;;;0.50;0.50;;;;;;;10.74;85.88;98509.09;4967562;28;20145;-84
2022/09/29 10:27:52;;;;;;;0.50;0.50;;;;;;;10.69;85.68;98508.25;4971924;28;20077;-84
2022/09/29 10:30:27;;;;;;;0.50;0.50;;;;;;;10.62;86.10;98519.25;4980364;28;20057;-82
2022/09/29 10:32:59;;;;;;;0.50;0.50;;;;;;;10.67;86.23;98526.59;4956518;29;20044;-83
2022/09/29 10:35:36;;;;;;;0.50;0.50;;;;;;;10.72;85.98;98524.72;4948879;28;20404;-83
2022/09/29 10:38:26;;;;;;;0.50;0.50;;;;;;;10.72;85.98;98524.72;4982517;28;20058;-84
2022/09/29 10:41:03;;;;;;;0.50;0.50;;;;;;;10.71;85.91;98531.22;4988358;28;20533;-86
2022/09/29 10:43:36;;;;;;;0.50;0.50;;;;;;;10.73;85.29;98537.16;4996339;28;20061;-85
2022/09/29 10:46:04;;;;;;;0.50;0.50;;;;;;;10.85;85.02;98543.19;4987168;28;20138;-86
2022/09/29 10:48:32;;;;;;;0.50;0.50;;;;;;;10.91;84.74;98537.84;4973266;28;20518;-86
2022/09/29 10:51:03;;;;;;;0.50;0.50;;;;;;;10.92;84.44;98542.19;4978332;28;20149;-85
2022/09/29 10:53:40;;;;;;;0.50;0.50;;;;;;;10.99;84.33;98546.28;4984337;28;20453;-85
2022/09/29 10:56:17;;;;;;;0.50;0.50;;;;;;;11.16;84.11;98553.41;4973365;28;20046;-85
2022/09/29 10:58:51;;;;;;;0.50;0.50;;;;;;;11.59;82.65;98546.94;4984791;28;20149;-85
2022/09/29 11:01:32;;;;;;;0.60;0.60;;;;;;;12.12;80.71;98541.50;4961321;28;20050;-86
2022/09/29 11:04:05;;;;;;;0.80;0.80;;;;;;;13.40;76.69;98545.16;4989860;28;20142;-84
2022/09/29 11:06:37;;;;;;;0.82;0.82;;;;;;;15.10;69.66;98548.63;4974739;28;20089;-85
2022/09/29 11:09:15;;;;;;;0.70;0.70;;;;;;;15.43;66.88;98540.72;4989115;28;20472;-85
2022/09/29 11:11:46;;;;;;;0.70;0.70;;;;;;;15.84;64.53;98556.59;4992250;28;20050;-85
2022/09/29 11:14:35;;;;;;;1.00;1.00;;;;;;;17.60;60.38;98543.63;4985348;28;20061;-86
2022/09/29 11:17:23;;;;;;;0.90;0.90;;;;;;;19.09;55.51;98544.00;4976361;28;20055;-86
2022/09/29 11:19:51;;;;;;;0.80;0.80;;;;;;;19.21;54.16;98548.88;4982985;28;20054;-85
2022/09/29 11:22:47;;;;;;;0.90;0.90;;;;;;;20.42;51.64;98547.75;4992835;28;20058;-86
2022/09/29 11:25:29;;;;;;;0.50;0.50;;;;;;;18.26;55.38;98549.72;4964605;28;20050;-85
2022/09/29 11:28:33;;;;;;;0.43;0.43;;;;;;;16.42;59.34;98556.41;4957540;28;20057;-86
2022/09/29 11:31:18;;;;;;;0.40;0.40;;;;;;;15.23;62.56;98557.22;4994484;28;20075;-86
2022/09/29 11:34:00;;;;;;;0.50;0.50;;;;;;;14.82;64.75;98566.50;4954441;28;20046;-86
2022/09/29 11:36:41;;;;;;;0.90;0.90;;;;;;;15.31;63.57;98571.00;4974136;28;20085;-86
2022/09/29 11:39:44;;;;;;;0.50;0.50;;;;;;;14.84;63.25;98575.19;4985938;28;20053;-85
2022/09/29 11:42:23;;;;;;;1.00;1.00;;;;;;;16.45;60.38;98566.72;4965310;28;20137;-87
2022/09/29 11:44:58;;;;;;;0.60;0.60;;;;;;;17.96;55.74;98570.25;4955228;28;20051;-87
2022/09/29 11:48:02;;;;;;;0.73;0.73;;;;;;;18.86;52.24;98565.03;4960594;28;20657;-86
2022/09/29 11:50:34;;;;;;;0.50;0.50;;;;;;;17.55;55.43;98568.28;4954448;28;20516;-87
2022/09/29 11:53:31;;;;;;;0.40;0.40;;;;;;;17.10;57.21;98566.03;4954191;28;20110;-86
2022/09/29 11:56:11;;;;;;;0.60;0.60;;;;;;;16.63;57.69;98567.00;4955267;28;20091;-86
2022/09/29 11:58:40;;;;;;;0.60;0.60;;;;;;;16.57;58.03;98576.38;4957477;28;20082;-86
2022/09/29 12:01:17;;;;;;;0.50;0.50;;;;;;;16.56;57.10;98572.03;4959766;28;20533;-86
2022/09/29 12:04:03;;;;;;;0.60;0.60;;;;;;;16.67;57.53;98590.66;4954312;28;20478;-84
2022/09/29 12:06:53;;;;;;;0.50;0.50;;;;;;;16.72;56.87;98583.53;4961625;28;20077;-86
2022/09/29 12:09:41;;;;;;;0.50;0.50;;;;;;;16.00;58.67;98598.88;4936113;29;20125;-86